Time;durP1;ratioP1;P1;durP2;ratioP2;P2;SDS_P1;SDS_P2;PMS_P1;PMS_P2;Temp;Humidity;BMP_temperature;BMP_pressure;BME280_temperature;BME280_humidity;BME280_pressure;Samples;Min_cycle;Max_cycle;Signal;HPM_P1;HPM_P2
2022/11/28 00:01:03;;;;;;;;;;;;;;;25.81;45.81;97672.38;604543;234;65484;-65
2022/11/28 00:03:30;;;;;;;;;;;;;;;25.82;46.59;97675.87;604565;234;65031;-65
2022/11/28 00:05:59;;;;;;;;;;;;;;;25.81;47.70;97664.31;604559;234;67211;-65
2022/11/28 00:08:27;;;;;;;;;;;;;;;25.81;46.13;97667.00;604464;234;64887;-65
2022/11/28 00:10:54;;;;;;;;;;;;;;;25.82;47.30;97667.80;604548;234;62891;-65
2022/11/28 00:13:22;;;;;;;;;;;;;;;25.83;47.56;97670.22;604617;234;65031;-65
2022/11/28 00:15:59;;;;;;;;;;;;;;;25.83;47.24;97678.30;604555;234;64980;-65
2022/11/28 00:18:27;;;;;;;;;;;;;;;25.84;47.11;97671.84;604586;234;65366;-65
2022/11/28 00:21:02;;;;;;;;;;;;;;;25.85;46.80;97676.13;604562;234;66943;-65
2022/11/28 00:23:30;;;;;;;;;;;;;;;25.84;47.33;97671.84;604560;234;66938;-65
2022/11/28 00:25:59;;;;;;;;;;;;;;;25.86;44.85;97666.98;604594;234;65013;-64
2022/11/28 00:28:27;;;;;;;;;;;;;;;25.87;45.01;97673.95;604564;234;65262;-65
2022/11/28 00:30:54;;;;;;;;;;;;;;;25.86;45.70;97669.67;604550;234;64759;-64
2022/11/28 00:33:22;;;;;;;;;;;;;;;25.88;45.74;97666.67;604570;234;63799;-64
2022/11/28 00:35:49;;;;;;;;;;;;;;;25.87;45.51;97671.27;604526;234;64789;-64
2022/11/28 00:38:17;;;;;;;;;;;;;;;25.88;46.56;97662.08;604620;234;64984;-65
2022/11/28 00:40:44;;;;;;;;;;;;;;;25.90;42.27;97670.69;604545;234;63010;-64
2022/11/28 00:43:12;;;;;;;;;;;;;;;25.91;45.27;97666.09;604610;234;65037;-64
2022/11/28 00:45:39;;;;;;;;;;;;;;;25.91;43.48;97669.58;604562;234;64903;-65
2022/11/28 00:48:07;;;;;;;;;;;;;;;25.93;45.79;97663.13;604521;234;63026;-64
2022/11/28 00:50:34;;;;;;;;;;;;;;;25.93;46.06;97665.82;604553;234;65029;-64
2022/11/28 00:53:02;;;;;;;;;;;;;;;25.94;47.13;97662.03;604604;234;64979;-64
2022/11/28 00:55:29;;;;;;;;;;;;;;;25.93;44.59;97661.23;604570;234;62957;-69
2022/11/28 00:57:57;;;;;;;;;;;;;;;25.94;45.19;97662.03;604557;234;67299;-69
2022/11/28 01:00:24;;;;;;;;;;;;;;;25.95;46.16;97666.34;604541;234;64942;-69
2022/11/28 01:02:52;;;;;;;;;;;;;;;25.95;47.11;97663.65;604550;234;65030;-69
2022/11/28 01:05:20;;;;;;;;;;;;;;;25.94;46.74;97667.41;604603;234;67277;-69
2022/11/28 01:07:47;;;;;;;;;;;;;;;25.94;46.11;97667.41;604575;234;66850;-69
2022/11/28 01:10:15;;;;;;;;;;;;;;;25.95;45.92;97666.34;604571;234;65150;-69
2022/11/28 01:12:43;;;;;;;;;;;;;;;25.96;45.30;97667.94;604568;234;65170;-69
2022/11/28 01:15:11;;;;;;;;;;;;;;;25.96;46.94;97663.34;604516;234;65207;-69
2022/11/28 01:17:39;;;;;;;;;;;;;;;25.96;48.30;97667.94;604601;234;65061;-65
2022/11/28 01:20:07;;;;;;;;;;;;;;;25.95;46.33;97660.95;604535;234;67271;-64
2022/11/28 01:22:35;;;;;;;;;;;;;;;25.95;45.47;97655.57;604583;234;67062;-64
2022/11/28 01:25:02;;;;;;;;;;;;;;;25.97;45.00;97658.75;604598;234;65032;-64
2022/11/28 01:27:29;;;;;;;;;;;;;;;25.96;45.97;97659.86;604574;234;67245;-64
2022/11/28 01:29:57;;;;;;;;;;;;;;;25.96;45.83;97654.47;604612;234;67109;-64
2022/11/28 01:32:25;;;;;;;;;;;;;;;25.95;45.73;97650.98;604642;234;65045;-65
2022/11/28 01:34:52;;;;;;;;;;;;;;;25.96;47.13;97657.96;604578;234;66899;-64
2022/11/28 01:37:20;;;;;;;;;;;;;;;25.95;47.75;97650.98;604580;234;67031;-64
2022/11/28 01:39:47;;;;;;;;;;;;;;;25.95;46.02;97639.41;604566;234;65096;-65
2022/11/28 01:42:18;;;;;;;;;;;;;;;25.95;46.02;97640.20;604620;234;67464;-65
2022/11/28 01:44:50;;;;;;;;;;;;;;;25.95;45.97;97634.82;604641;234;67031;-65
2022/11/28 01:47:19;;;;;;;;;;;;;;;25.95;44.23;97639.41;603702;234;64938;-64
2022/11/28 01:49:47;;;;;;;;;;;;;;;25.95;46.54;97634.03;603182;235;67283;-64
2022/11/28 01:52:16;;;;;;;;;;;;;;;25.95;47.01;97639.41;603316;235;67184;-64
2022/11/28 01:54:45;;;;;;;;;;;;;;;25.94;45.67;97635.09;603298;235;65102;-65
2022/11/28 01:57:17;;;;;;;;;;;;;;;25.94;45.43;97633.20;603334;235;67308;-65
2022/11/28 01:59:49;;;;;;;;;;;;;;;25.95;45.08;97634.03;603315;235;64906;-66
2022/11/28 02:02:21;;;;;;;;;;;;;;;25.93;47.37;97639.69;603060;235;63086;-65
2022/11/28 02:04:50;;;;;;;;;;;;;;;25.91;47.73;97626.50;603179;235;64847;-66
2022/11/28 02:07:18;;;;;;;;;;;;;;;25.91;46.83;97631.88;603281;235;67067;-66
2022/11/28 02:09:45;;;;;;;;;;;;;;;25.93;44.78;97630.81;603297;235;66506;-66
2022/11/28 02:12:15;;;;;;;;;;;;;;;25.93;46.51;97630.81;603327;235;67265;-66
2022/11/28 02:14:43;;;;;;;;;;;;;;;25.91;45.75;97628.39;603322;235;67063;-67
2022/11/28 02:17:15;;;;;;;;;;;;;;;25.90;46.78;97632.98;603008;235;65015;-66
2022/11/28 02:19:56;;;;;;;;;;;;;;;25.90;46.59;97632.19;602981;235;64653;-66
2022/11/28 02:22:28;;;;;;;;;;;;;;;25.89;46.33;97631.39;603304;235;64713;-66
2022/11/28 02:25:16;;;;;;;;;;;;;;;25.88;47.30;97624.38;603188;235;62902;-66
2022/11/28 02:27:57;;;;;;;;;;;;;;;25.87;45.42;97622.80;602318;235;67259;-65
2022/11/28 02:30:26;;;;;;;;;;;;;;;25.87;47.53;97628.18;602648;235;67419;-66
2022/11/28 02:33:12;;;;;;;;;;;;;;;25.85;47.73;97618.78;603193;235;65018;-65
2022/11/28 02:35:58;;;;;;;;;;;;;;;25.85;47.87;97616.09;603292;235;67344;-65
2022/11/28 02:38:27;;;;;;;;;;;;;;;25.85;48.22;97618.78;603297;235;66880;-65
2022/11/28 02:40:56;;;;;;;;;;;;;;;25.84;47.72;97614.50;600602;235;63199;-65
2022/11/28 02:43:25;;;;;;;;;;;;;;;25.82;48.08;97619.33;603173;235;65104;-65
2022/11/28 02:46:03;;;;;;;;;;;;;;;25.82;48.31;97603.98;603137;235;66852;-65
2022/11/28 02:48:32;;;;;;;;;;;;;;;25.81;47.71;97612.33;603215;235;65216;-65
2022/11/28 02:51:04;;;;;;;;;;;;;;;25.80;47.37;97611.53;602665;235;66751;-65
2022/11/28 02:53:32;;;;;;;;;;;;;;;25.80;48.46;97610.73;602990;235;66752;-65
2022/11/28 02:56:00;;;;;;;;;;;;;;;25.79;48.07;97615.33;603302;235;62910;-65
2022/11/28 02:58:27;;;;;;;;;;;;;;;25.78;48.39;97618.29;603317;235;65039;-65
2022/11/28 03:00:55;;;;;;;;;;;;;;;25.77;46.57;97612.11;603374;235;66837;-65
2022/11/28 03:03:39;;;;;;;;;;;;;;;25.78;48.15;97616.42;603327;235;63828;-65
2022/11/28 03:06:09;;;;;;;;;;;;;;;25.77;48.66;97612.11;603036;235;66958;-64
2022/11/28 03:08:44;;;;;;;;;;;;;;;25.76;48.47;97601.64;603328;235;64652;-65
2022/11/28 03:11:25;;;;;;;;;;;;;;;25.75;47.59;97603.52;603284;235;64844;-69
2022/11/28 03:13:57;;;;;;;;;;;;;;;25.74;47.52;97601.92;602808;235;67173;-69
2022/11/28 03:16:29;;;;;;;;;;;;;;;25.74;46.66;97596.54;603199;235;64869;-70
2022/11/28 03:19:01;;;;;;;;;;;;;;;25.73;47.45;97608.41;603272;235;65147;-70
2022/11/28 03:21:30;;;;;;;;;;;;;;;25.73;48.11;97611.09;603299;235;64989;-70
2022/11/28 03:23:59;;;;;;;;;;;;;;;25.71;48.56;97607.09;603298;235;65014;-70
2022/11/28 03:26:28;;;;;;;;;;;;;;;25.69;47.48;97605.47;603268;235;62928;-70
2022/11/28 03:28:57;;;;;;;;;;;;;;;25.69;48.07;97601.98;603145;235;67262;-70
2022/11/28 03:31:26;;;;;;;;;;;;;;;25.70;48.32;97603.60;603244;235;67202;-70
2022/11/28 03:33:54;;;;;;;;;;;;;;;25.69;47.94;97608.16;603170;235;65146;-70
2022/11/28 03:36:24;;;;;;;;;;;;;;;25.67;48.51;97604.14;603292;235;65077;-70
2022/11/28 03:38:53;;;;;;;;;;;;;;;25.67;49.07;97606.84;602724;235;64708;-70
2022/11/28 03:41:34;;;;;;;;;;;;;;;25.66;47.63;97605.25;603294;235;62957;-70
2022/11/28 03:44:02;;;;;;;;;;;;;;;25.66;46.10;97605.25;603191;235;65272;-70
2022/11/28 03:46:31;;;;;;;;;;;;;;;25.66;47.04;97599.86;603209;235;67321;-69
2022/11/28 03:49:00;;;;;;;;;;;;;;;25.65;48.17;97603.66;603215;235;65229;-70
2022/11/28 03:51:32;;;;;;;;;;;;;;;25.63;48.14;97612.00;603253;235;65068;-70
2022/11/28 03:54:01;;;;;;;;;;;;;;;25.63;48.45;97611.20;603168;235;64942;-70
2022/11/28 03:56:36;;;;;;;;;;;;;;;25.63;48.22;97621.97;603292;235;63908;-70
2022/11/28 03:59:08;;;;;;;;;;;;;;;25.61;47.97;97619.55;603057;235;67286;-70
2022/11/28 04:01:46;;;;;;;;;;;;;;;25.60;49.05;97617.97;603246;235;67191;-70
2022/11/28 04:04:18;;;;;;;;;;;;;;;25.61;47.74;97616.06;603305;235;65082;-70
2022/11/28 04:06:56;;;;;;;;;;;;;;;25.59;48.61;97619.06;603171;235;64756;-70
2022/11/28 04:09:28;;;;;;;;;;;;;;;25.57;47.77;97618.54;603290;235;65309;-70
2022/11/28 04:11:57;;;;;;;;;;;;;;;25.57;48.67;97609.67;602939;235;65166;-70
2022/11/28 04:14:29;;;;;;;;;;;;;;;25.57;45.68;97623.13;603166;235;67477;-70
2022/11/28 04:16:58;;;;;;;;;;;;;;;25.56;44.81;97629.58;603173;235;67043;-70
2022/11/28 04:19:28;;;;;;;;;;;;;;;25.58;47.21;97624.72;603132;235;65136;-70
2022/11/28 04:21:57;;;;;;;;;;;;;;;25.57;46.82;97628.51;603268;235;67265;-70
2022/11/28 04:24:32;;;;;;;;;;;;;;;25.55;48.07;97630.67;603295;235;67119;-70
2022/11/28 04:27:07;;;;;;;;;;;;;;;25.52;48.09;97626.67;603023;235;62913;-70
2022/11/28 04:29:38;;;;;;;;;;;;;;;25.52;46.53;97625.87;603346;235;64596;-70
2022/11/28 04:32:07;;;;;;;;;;;;;;;25.52;47.51;97631.25;603122;235;67038;-70
2022/11/28 04:34:35;;;;;;;;;;;;;;;25.51;48.45;97635.84;603284;235;65151;-70
2022/11/28 04:37:04;;;;;;;;;;;;;;;25.50;47.10;97633.42;603259;235;65136;-70
2022/11/28 04:39:33;;;;;;;;;;;;;;;25.48;47.69;97631.00;603266;235;66977;-70
2022/11/28 04:42:08;;;;;;;;;;;;;;;25.49;44.01;97632.63;603340;235;65104;-70
2022/11/28 04:44:40;;;;;;;;;;;;;;;25.48;46.22;97633.69;603023;235;67252;-70
2022/11/28 04:47:08;;;;;;;;;;;;;;;25.47;46.10;97632.09;603219;235;66991;-70
2022/11/28 04:49:36;;;;;;;;;;;;;;;25.46;47.67;97635.89;603296;235;63002;-70
2022/11/28 04:52:07;;;;;;;;;;;;;;;25.45;48.37;97640.47;603258;235;64933;-66
2022/11/28 04:54:52;;;;;;;;;;;;;;;25.45;47.83;97648.55;603317;235;64525;-65
2022/11/28 04:57:24;;;;;;;;;;;;;;;25.44;48.17;97635.36;603134;235;63144;-65
2022/11/28 04:59:52;;;;;;;;;;;;;;;25.42;46.80;97638.33;603023;235;65154;-65
2022/11/28 05:02:21;;;;;;;;;;;;;;;25.42;47.03;97643.70;603229;235;67374;-65
2022/11/28 05:04:51;;;;;;;;;;;;;;;25.42;46.78;97642.91;603270;235;62898;-65
2022/11/28 05:07:17;;;;;;;;;;;;;;;25.40;46.08;97645.91;603237;235;67293;-65
2022/11/28 05:09:45;;;;;;;;;;;;;;;25.40;46.61;97640.52;603273;235;67042;-65
2022/11/28 05:12:12;;;;;;;;;;;;;;;25.39;46.58;97649.66;603322;235;62744;-65
2022/11/28 05:14:40;;;;;;;;;;;;;;;25.40;46.88;97647.77;603266;235;65025;-65
2022/11/28 05:17:07;;;;;;;;;;;;;;;25.37;45.69;97646.47;603282;235;66707;-65
2022/11/28 05:19:35;;;;;;;;;;;;;;;25.37;46.05;97643.78;603293;235;65118;-65
2022/11/28 05:22:02;;;;;;;;;;;;;;;25.36;47.43;97650.23;603250;235;67023;-65
2022/11/28 05:24:30;;;;;;;;;;;;;;;25.36;46.64;97647.55;603312;235;67109;-65
2022/11/28 05:26:57;;;;;;;;;;;;;;;25.36;45.79;97644.05;603270;235;65032;-71
2022/11/28 05:29:25;;;;;;;;;;;;;;;25.35;47.59;97648.64;603231;235;67487;-70
2022/11/28 05:31:52;;;;;;;;;;;;;;;25.34;47.79;97648.91;603267;235;67066;-70
2022/11/28 05:34:20;;;;;;;;;;;;;;;25.32;47.08;97638.45;603277;235;63056;-65
2022/11/28 05:36:47;;;;;;;;;;;;;;;25.34;45.27;97648.91;603279;235;67041;-65
2022/11/28 05:39:15;;;;;;;;;;;;;;;25.33;45.22;97648.11;603309;235;67018;-65
2022/11/28 05:41:42;;;;;;;;;;;;;;;25.32;45.94;97649.21;603267;235;65122;-65
2022/11/28 05:44:10;;;;;;;;;;;;;;;25.32;44.84;97648.38;603265;235;67238;-65
2022/11/28 05:46:37;;;;;;;;;;;;;;;25.33;46.30;97650.80;603134;235;66898;-65
2022/11/28 05:49:05;;;;;;;;;;;;;;;25.31;47.74;97647.59;603332;235;65089;-65
2022/11/28 05:51:32;;;;;;;;;;;;;;;25.30;48.29;97642.51;603109;235;67245;-65
2022/11/28 05:54:00;;;;;;;;;;;;;;;25.30;47.44;97653.27;603226;235;67098;-65
2022/11/28 05:56:27;;;;;;;;;;;;;;;25.29;48.07;97648.95;603203;235;65124;-65
2022/11/28 05:58:56;;;;;;;;;;;;;;;25.28;46.83;97656.23;602200;235;65388;-65
2022/11/28 06:01:25;;;;;;;;;;;;;;;25.29;46.83;97647.09;603218;235;64973;-65
2022/11/28 06:03:58;;;;;;;;;;;;;;;25.29;46.86;97655.16;603280;235;65047;-70
2022/11/28 06:06:22;;;;;;;;;;;;;;;25.30;45.20;97655.96;603109;235;64926;-70
2022/11/28 06:08:53;;;;;;;;;;;;;;;25.29;47.40;97655.16;603315;235;66838;-70
2022/11/28 06:11:21;;;;;;;;;;;;;;;25.29;46.91;97657.02;603293;235;65175;-70
2022/11/28 06:13:49;;;;;;;;;;;;;;;25.29;49.38;97657.02;603348;235;67251;-70
2022/11/28 06:16:17;;;;;;;;;;;;;;;25.28;45.92;97658.92;603272;235;67363;-70
2022/11/28 06:18:45;;;;;;;;;;;;;;;25.28;46.00;97656.23;603302;235;65134;-70
2022/11/28 06:21:14;;;;;;;;;;;;;;;25.29;47.75;97665.92;603315;235;67245;-70
2022/11/28 06:23:42;;;;;;;;;;;;;;;25.28;46.90;97658.92;603281;235;65116;-70
2022/11/28 06:26:11;;;;;;;;;;;;;;;25.29;46.20;97646.27;603287;235;62916;-70
2022/11/28 06:28:39;;;;;;;;;;;;;;;25.29;48.14;97641.71;603331;235;67081;-70
2022/11/28 06:31:10;;;;;;;;;;;;;;;25.30;47.90;97645.20;603286;235;67160;-70
2022/11/28 06:33:38;;;;;;;;;;;;;;;25.31;48.14;97650.28;603337;235;62928;-70
2022/11/28 06:36:06;;;;;;;;;;;;;;;25.30;48.60;97648.69;603282;235;64602;-70
2022/11/28 06:38:34;;;;;;;;;;;;;;;25.31;48.96;97647.59;603270;235;67058;-70
2022/11/28 06:41:04;;;;;;;;;;;;;;;25.32;47.45;97638.45;603343;235;65116;-70
2022/11/28 06:43:32;;;;;;;;;;;;;;;25.34;47.83;97643.53;603274;235;67511;-69
2022/11/28 06:45:59;;;;;;;;;;;;;;;25.35;48.61;97645.16;603147;235;67067;-71
2022/11/28 06:48:31;;;;;;;;;;;;;;;25.36;50.27;97641.37;603239;235;65073;-71
2022/11/28 06:51:02;;;;;;;;;;;;;;;25.36;50.03;97638.67;603146;235;68209;-72
2022/11/28 06:53:30;;;;;;;;;;;;;;;25.37;48.73;97635.72;603296;235;67065;-70
2022/11/28 06:55:58;;;;;;;;;;;;;;;25.40;48.19;97635.14;603336;235;65196;-69
2022/11/28 06:58:25;;;;;;;;;;;;;;;25.43;48.59;97633.77;603239;235;67102;-69
2022/11/28 07:00:53;;;;;;;;;;;;;;;25.45;44.94;97640.47;603301;235;66849;-69
2022/11/28 07:03:20;;;;;;;;;;;;;;;25.52;42.64;97636.63;603256;235;64326;-68
2022/11/28 07:05:48;;;;;;;;;;;;;;;25.57;44.48;97637.38;601318;235;64647;-67
2022/11/28 07:08:16;;;;;;;;;;;;;;;25.60;47.77;97638.70;600004;235;67030;-68
2022/11/28 07:10:43;;;;;;;;;;;;;;;25.62;45.60;97644.61;598943;237;62833;-68
2022/11/28 07:13:11;;;;;;;;;;;;;;;25.65;42.03;97649.41;598952;237;64798;-69
2022/11/28 07:15:38;;;;;;;;;;;;;;;25.69;40.81;97645.05;598903;237;66836;-69
2022/11/28 07:18:06;;;;;;;;;;;;;;;25.74;43.72;97647.69;598920;237;63118;-70
2022/11/28 07:20:33;;;;;;;;;;;;;;;25.76;46.17;97640.13;598972;237;64711;-70
2022/11/28 07:23:01;;;;;;;;;;;;;;;25.79;45.95;97641.45;598965;237;64709;-69
2022/11/28 07:25:28;;;;;;;;;;;;;;;25.81;47.62;97639.25;598926;237;63072;-69
2022/11/28 07:27:56;;;;;;;;;;;;;;;25.83;47.43;97635.22;590281;237;64373;-68
2022/11/28 07:30:25;;;;;;;;;;;;;;;25.85;45.14;97638.42;598871;237;67369;-70
2022/11/28 07:32:52;;;;;;;;;;;;;;;25.89;47.52;97641.34;598974;237;62934;-70
2022/11/28 07:35:20;;;;;;;;;;;;;;;25.90;47.31;97640.27;598905;237;64954;-69
2022/11/28 07:37:47;;;;;;;;;;;;;;;25.90;46.45;97643.76;598929;237;66899;-69
2022/11/28 07:40:17;;;;;;;;;;;;;;;25.93;46.68;97633.51;598805;237;65015;-69
2022/11/28 07:42:44;;;;;;;;;;;;;;;25.94;45.62;97635.09;598899;237;67335;-62
2022/11/28 07:45:13;;;;;;;;;;;;;;;25.97;45.95;97629.92;598898;237;66993;-63
2022/11/28 07:47:40;;;;;;;;;;;;;;;25.96;39.08;97631.03;599618;236;64963;-61
2022/11/28 07:50:08;;;;;;;;;;;;;;;26.00;47.02;97628.55;599721;236;66972;-63
2022/11/28 07:52:35;;;;;;;;;;;;;;;26.01;39.70;97622.89;599748;236;67088;-68
2022/11/28 07:55:03;;;;;;;;;;;;;;;26.04;38.96;97626.90;599716;236;65020;-68
2022/11/28 07:57:30;;;;;;;;;;;;;;;26.07;41.92;97619.03;599709;236;67486;-65
2022/11/28 07:59:58;;;;;;;;;;;;;;;26.09;41.93;97626.84;599743;236;64862;-67
2022/11/28 08:02:25;;;;;;;;;;;;;;;26.11;45.94;97624.66;599760;236;63165;-66
2022/11/28 08:04:53;;;;;;;;;;;;;;;26.12;46.28;97626.25;599181;233;67259;-66
2022/11/28 08:07:21;;;;;;;;;;;;;;;26.10;46.41;97625.73;606885;233;66945;-66
2022/11/28 08:09:48;;;;;;;;;;;;;;;26.09;47.03;97629.53;607219;233;64894;-66
2022/11/28 08:12:17;;;;;;;;;;;;;;;26.11;44.48;97632.74;607681;233;67108;-67
2022/11/28 08:14:45;;;;;;;;;;;;;;;26.10;44.78;97637.30;607418;233;65017;-67
2022/11/28 08:17:12;;;;;;;;;;;;;;;26.11;41.65;97638.92;607764;233;63066;-68
2022/11/28 08:19:40;;;;;;;;;;;;;;;26.15;42.89;97639.14;607651;233;65006;-69
2022/11/28 08:22:07;;;;;;;;;;;;;;;26.18;45.03;97629.67;607736;233;64950;-69
2022/11/28 08:24:35;;;;;;;;;;;;;;;26.19;44.25;97640.18;607768;233;64973;-68
2022/11/28 08:27:02;;;;;;;;;;;;;;;26.21;43.53;97637.97;607703;233;67292;-71
2022/11/28 08:29:30;;;;;;;;;;;;;;;26.23;45.20;97635.00;607747;233;66970;-68
2022/11/28 08:31:57;;;;;;;;;;;;;;;26.24;43.69;97617.73;607749;233;62932;-69
2022/11/28 08:34:25;;;;;;;;;;;;;;;26.26;44.91;97631.72;607702;233;64957;-68
2022/11/28 08:36:52;;;;;;;;;;;;;;;26.25;46.54;97622.84;607805;233;66893;-69
2022/11/28 08:39:22;;;;;;;;;;;;;;;26.23;43.84;97630.41;607756;233;65072;-69
2022/11/28 08:41:49;;;;;;;;;;;;;;;26.23;44.65;97625.02;607723;233;67008;-69
2022/11/28 08:44:16;;;;;;;;;;;;;;;26.25;45.13;97622.84;607756;233;67419;-69
2022/11/28 08:46:44;;;;;;;;;;;;;;;26.26;44.24;97621.74;605771;233;65189;-73
2022/11/28 08:49:11;;;;;;;;;;;;;;;26.27;47.02;97611.77;603183;235;67250;-69
2022/11/28 08:51:39;;;;;;;;;;;;;;;26.28;39.89;97613.38;603234;235;64924;-70
2022/11/28 08:54:08;;;;;;;;;;;;;;;26.32;42.96;97611.69;602988;235;65174;-69
2022/11/28 08:56:35;;;;;;;;;;;;;;;26.32;44.32;97615.19;603144;235;67076;-68
2022/11/28 08:59:03;;;;;;;;;;;;;;;26.32;44.82;97612.48;603229;235;64800;-68
2022/11/28 09:01:31;;;;;;;;;;;;;;;26.31;42.46;97600.12;603158;235;65103;-68
2022/11/28 09:03:59;;;;;;;;;;;;;;;26.31;44.93;97600.12;603145;235;67152;-69
2022/11/28 09:06:26;;;;;;;;;;;;;;;26.28;44.06;97592.63;603169;235;67032;-69
2022/11/28 09:08:54;;;;;;;;;;;;;;;26.30;44.67;97593.14;603141;235;65035;-70
2022/11/28 09:11:22;;;;;;;;;;;;;;;26.32;45.58;97585.55;603197;235;67460;-68
2022/11/28 09:13:49;;;;;;;;;;;;;;;26.32;40.76;97585.55;603188;235;67152;-69
2022/11/28 09:16:18;;;;;;;;;;;;;;;26.34;43.77;97583.36;603200;235;64997;-68
2022/11/28 09:18:45;;;;;;;;;;;;;;;26.37;44.91;97575.80;603127;235;67315;-69
2022/11/28 09:21:14;;;;;;;;;;;;;;;26.37;45.46;97575.80;603196;235;64870;-68
2022/11/28 09:23:43;;;;;;;;;;;;;;;26.38;44.24;97569.30;603153;235;65092;-68
2022/11/28 09:26:11;;;;;;;;;;;;;;;26.39;45.17;97573.62;603260;235;67214;-69
2022/11/28 09:28:38;;;;;;;;;;;;;;;26.39;47.48;97574.41;603188;235;64791;-69
2022/11/28 09:31:06;;;;;;;;;;;;;;;26.35;46.05;97568.81;603101;235;65015;-71
2022/11/28 09:33:34;;;;;;;;;;;;;;;26.34;46.21;97569.09;603210;235;67062;-71
2022/11/28 09:36:05;;;;;;;;;;;;;;;26.33;45.64;97564.81;603233;235;66922;-72
2022/11/28 09:38:33;;;;;;;;;;;;;;;26.30;46.09;97555.42;603118;235;65396;-71
2022/11/28 09:41:01;;;;;;;;;;;;;;;26.30;47.15;97558.11;603160;235;64780;-71
2022/11/28 09:43:30;;;;;;;;;;;;;;;26.29;47.65;97558.39;603213;235;67104;-71
2022/11/28 09:45:59;;;;;;;;;;;;;;;26.27;45.82;97549.79;602917;235;63089;-69
2022/11/28 09:48:32;;;;;;;;;;;;;;;26.26;46.38;97545.51;603245;235;67255;-70
2022/11/28 09:51:01;;;;;;;;;;;;;;;26.24;47.32;97539.60;602962;235;65442;-71
2022/11/28 09:53:36;;;;;;;;;;;;;;;26.21;47.61;97538.30;602968;235;62802;-70
2022/11/28 09:56:05;;;;;;;;;;;;;;;26.21;47.80;97540.98;603153;235;67272;-68
2022/11/28 09:58:47;;;;;;;;;;;;;;;26.21;46.37;97534.80;602952;235;67353;-71
2022/11/28 10:01:33;;;;;;;;;;;;;;;26.20;47.31;97533.22;603229;235;62834;-72
2022/11/28 10:04:14;;;;;;;;;;;;;;;26.20;47.17;97539.40;603178;235;67842;-70
2022/11/28 10:06:46;;;;;;;;;;;;;;;26.20;47.34;97536.70;602918;235;66977;-73
2022/11/28 10:09:14;;;;;;;;;;;;;;;26.20;49.51;97534.02;602754;235;62981;-72
2022/11/28 10:11:43;;;;;;;;;;;;;;;26.19;49.48;97536.98;602073;234;67099;-69
2022/11/28 10:14:22;;;;;;;;;;;;;;;26.19;47.08;97524.34;602817;235;66874;-71
2022/11/28 10:16:51;;;;;;;;;;;;;;;26.17;48.35;97521.12;600236;235;66421;-70
2022/11/28 10:19:20;;;;;;;;;;;;;;;26.19;45.58;97524.34;598663;237;66936;-69
2022/11/28 10:21:49;;;;;;;;;;;;;;;26.20;46.90;97525.92;598756;237;67056;-73
2022/11/28 10:24:21;;;;;;;;;;;;;;;26.27;43.29;97520.98;598879;237;65185;-72
2022/11/28 10:26:50;;;;;;;;;;;;;;;26.30;46.41;97515.00;594955;237;67501;-71
2022/11/28 10:29:27;;;;;;;;;;;;;;;26.33;44.53;97510.92;598825;236;67138;-72
2022/11/28 10:31:56;;;;;;;;;;;;;;;26.38;43.95;97507.33;598723;237;63018;-70
2022/11/28 10:34:26;;;;;;;;;;;;;;;26.43;42.02;97497.27;598854;237;65131;-72
2022/11/28 10:37:01;;;;;;;;;;;;;;;26.46;46.88;97495.88;598878;237;64996;-71
2022/11/28 10:39:29;;;;;;;;;;;;;;;26.46;45.76;97493.97;598786;237;65111;-70
2022/11/28 10:42:17;;;;;;;;;;;;;;;26.47;48.66;97495.59;598739;237;44318;-73
2022/11/28 10:44:46;;;;;;;;;;;;;;;26.50;43.68;97496.90;598469;237;66992;-69
2022/11/28 10:47:15;;;;;;;;;;;;;;;26.53;43.43;97485.55;598359;237;64884;-70
2022/11/28 10:49:50;;;;;;;;;;;;;;;26.55;44.00;97486.06;598172;237;67347;-72
2022/11/28 10:52:27;;;;;;;;;;;;;;;26.56;45.85;97484.95;597518;236;67146;-71
2022/11/28 10:55:02;;;;;;;;;;;;;;;26.53;47.62;97493.64;597804;237;65074;-71
2022/11/28 10:57:31;;;;;;;;;;;;;;;26.52;46.57;97494.75;598058;237;67155;-72
2022/11/28 11:00:00;;;;;;;;;;;;;;;26.51;44.73;97493.13;598234;237;66936;-71
2022/11/28 11:02:46;;;;;;;;;;;;;;;26.50;45.64;97489.61;598169;237;64704;-69
2022/11/28 11:05:15;;;;;;;;;;;;;;;26.52;44.49;97492.84;598191;237;67241;-70
2022/11/28 11:07:47;;;;;;;;;;;;;;;26.54;46.69;97489.84;598271;237;66641;-72
2022/11/28 11:10:16;;;;;;;;;;;;;;;26.54;43.53;97485.24;598210;237;63091;-68
2022/11/28 11:12:44;;;;;;;;;;;;;;;26.58;44.40;97480.08;598242;237;66969;-69
2022/11/28 11:15:15;;;;;;;;;;;;;;;26.59;45.64;97473.58;598210;237;67071;-70
2022/11/28 11:17:43;;;;;;;;;;;;;;;26.60;42.84;97472.50;598242;237;64913;-70
2022/11/28 11:20:12;;;;;;;;;;;;;;;26.62;43.78;97472.19;598270;237;66799;-71
2022/11/28 11:22:39;;;;;;;;;;;;;;;26.65;45.10;97474.28;596175;237;66854;-71
2022/11/28 11:25:16;;;;;;;;;;;;;;;26.66;45.70;97460.53;598224;237;63046;-71
2022/11/28 11:27:53;;;;;;;;;;;;;;;26.69;45.73;97464.53;598077;236;66825;-71
2022/11/28 11:30:25;;;;;;;;;;;;;;;26.69;47.46;97459.92;597816;237;67064;-71
2022/11/28 11:32:57;;;;;;;;;;;;;;;26.69;44.19;97465.32;597350;237;65582;-72
2022/11/28 11:35:26;;;;;;;;;;;;;;;26.72;38.73;97464.72;596766;237;64961;-72
2022/11/28 11:38:00;;;;;;;;;;;;;;;26.78;45.03;97468.13;597847;237;44187;-72
2022/11/28 11:40:29;;;;;;;;;;;;;;;26.78;45.82;97458.13;596688;237;64929;-73
2022/11/28 11:43:00;;;;;;;;;;;;;;;26.82;45.58;97468.31;598257;237;67566;-73
2022/11/28 11:45:42;;;;;;;;;;;;;;;26.83;42.64;97461.84;598179;237;67132;-72
2022/11/28 11:48:12;;;;;;;;;;;;;;;26.85;42.96;97465.05;599340;236;41931;-74
2022/11/28 11:50:46;;;;;;;;;;;;;;;26.88;44.26;97459.84;599647;236;47242;-72
2022/11/28 11:53:14;;;;;;;;;;;;;;;26.89;43.78;97460.64;598752;236;66883;-72
2022/11/28 11:55:52;;;;;;;;;;;;;;;26.93;43.54;97467.05;599685;236;42493;-71
2022/11/28 11:58:26;;;;;;;;;;;;;;;26.93;40.31;97461.66;599723;236;67308;-72
2022/11/28 12:00:57;;;;;;;;;;;;;;;26.97;43.48;97454.55;599651;236;67084;-72
2022/11/28 12:03:29;;;;;;;;;;;;;;;26.99;41.36;97455.86;599715;236;62882;-72
2022/11/28 12:05:59;;;;;;;;;;;;;;;27.03;41.91;97457.95;599330;236;67248;-72
2022/11/28 12:08:31;;;;;;;;;;;;;;;27.04;43.15;97459.53;599674;236;64917;-73
2022/11/28 12:11:00;;;;;;;;;;;;;;;27.07;42.67;97457.06;599711;236;65021;-73
2022/11/28 12:13:36;;;;;;;;;;;;;;;27.09;43.60;97457.56;598622;236;49778;-73
2022/11/28 12:16:22;;;;;;;;;;;;;;;27.11;41.26;97466.13;592747;236;65090;-73
2022/11/28 12:18:54;;;;;;;;;;;;;;;27.13;42.03;97461.25;599660;236;62811;-71
2022/11/28 12:21:26;;;;;;;;;;;;;;;27.15;41.35;97455.56;599288;236;67235;-73
2022/11/28 12:23:55;;;;;;;;;;;;;;;27.16;40.31;97452.58;599265;236;66829;-72
2022/11/28 12:26:30;;;;;;;;;;;;;;;27.19;42.60;97451.97;599449;236;65109;-70
2022/11/28 12:28:59;;;;;;;;;;;;;;;27.22;41.64;97456.77;599677;236;67366;-73
2022/11/28 12:31:31;;;;;;;;;;;;;;;27.26;39.59;97458.89;599445;236;65340;-73
2022/11/28 12:34:09;;;;;;;;;;;;;;;27.28;40.32;97449.36;599353;236;64978;-73
2022/11/28 12:36:38;;;;;;;;;;;;;;;27.30;39.49;97447.17;599309;236;65833;-74
2022/11/28 12:39:17;;;;;;;;;;;;;;;27.32;40.68;97447.67;598571;236;65164;-71
2022/11/28 12:42:02;;;;;;;;;;;;;;;27.34;39.80;97448.17;599642;236;65082;-73
2022/11/28 12:44:36;;;;;;;;;;;;;;;27.32;40.10;97455.77;599461;236;64971;-72
2022/11/28 12:47:08;;;;;;;;;;;;;;;27.32;41.32;97460.38;599668;236;67044;-73
2022/11/28 12:49:43;;;;;;;;;;;;;;;27.33;42.89;97456.56;599663;236;64882;-74
2022/11/28 12:52:12;;;;;;;;;;;;;;;27.32;41.47;97463.07;599370;236;66935;-69
2022/11/28 12:54:41;;;;;;;;;;;;;;;27.32;41.12;97468.47;599205;236;67084;-73
2022/11/28 12:57:13;;;;;;;;;;;;;;;27.37;40.10;97466.46;599625;236;62924;-72
2022/11/28 12:59:51;;;;;;;;;;;;;;;27.38;40.89;97464.55;595764;236;47108;-71
2022/11/28 13:02:27;;;;;;;;;;;;;;;27.38;37.08;97465.34;599714;236;64846;-67